createdAt,value
2024-01-24T00:00:11.475Z,134.02
2024-01-24T00:02:38.535Z,137.95
2024-01-24T00:05:07.119Z,137.45
2024-01-24T00:07:34.139Z,140.70
2024-01-24T00:10:01.763Z,127.53
2024-01-24T00:12:28.911Z,133.93
2024-01-24T00:14:55.904Z,129.65
2024-01-24T00:17:22.953Z,102.57
2024-01-24T00:19:49.806Z,106.13
2024-01-24T00:22:16.817Z,108.43
2024-01-24T00:24:43.927Z,122.18
2024-01-24T00:27:12.639Z,116.22
2024-01-24T00:29:40.432Z,110.72
2024-01-24T00:32:07.556Z,103.93
2024-01-24T00:34:34.599Z,102.15
2024-01-24T00:37:01.741Z,103.43
2024-01-24T00:39:28.666Z,107.32
2024-01-24T00:41:59.631Z,103.28
2024-01-24T00:44:26.647Z,98.85
2024-01-24T00:46:53.715Z,94.40
2024-01-24T00:49:21.218Z,102.03
2024-01-24T00:51:48.277Z,93.55
2024-01-24T00:54:15.531Z,96.05
2024-01-24T00:56:42.518Z,97.43
2024-01-24T00:59:10.020Z,94.57
2024-01-24T01:01:37.181Z,93.65
2024-01-24T01:04:05.570Z,95.20
2024-01-24T01:06:32.681Z,95.57
2024-01-24T01:09:01.754Z,95.63
2024-01-24T01:11:29.058Z,99.65
2024-01-24T01:13:56.021Z,99.57
2024-01-24T01:16:23.131Z,97.47
2024-01-24T01:18:50.140Z,103.75
2024-01-24T01:21:17.201Z,104.63
2024-01-24T01:23:44.281Z,94.65
2024-01-24T01:26:11.180Z,97.85
2024-01-24T01:28:38.320Z,101.85
2024-01-24T01:31:30.438Z,98.43
2024-01-24T01:33:57.624Z,95.20
2024-01-24T01:36:24.703Z,91.13
2024-01-24T01:38:51.788Z,85.93
2024-01-24T01:41:18.805Z,86.72
2024-01-24T01:43:46.352Z,81.50
2024-01-24T01:46:21.551Z,84.50
2024-01-24T01:48:51.293Z,75.60
2024-01-24T01:51:19.833Z,83.20
2024-01-24T01:53:49.074Z,75.30
2024-01-24T01:56:19.437Z,83.75
2024-01-24T02:01:15.593Z,76.07
2024-01-24T02:03:48.018Z,73.80
2024-01-24T02:06:15.499Z,74.50
2024-01-24T02:08:44.683Z,85.88
2024-01-24T02:11:13.084Z,79.82
2024-01-24T02:13:39.978Z,87.35
2024-01-24T02:16:07.557Z,75.13
2024-01-24T02:18:34.616Z,72.15
2024-01-24T02:21:01.692Z,72.03
2024-01-24T02:23:28.726Z,72.35
2024-01-24T02:25:55.668Z,76.03
2024-01-24T02:28:22.635Z,69.93
2024-01-24T02:30:49.668Z,70.13
2024-01-24T02:33:16.985Z,67.57
2024-01-24T02:35:44.237Z,67.78
2024-01-24T02:38:11.303Z,68.07
2024-01-24T02:40:38.378Z,65.65
2024-01-24T02:43:05.764Z,71.85
2024-01-24T02:45:33.434Z,66.07
2024-01-24T02:48:00.598Z,75.75
2024-01-24T02:50:27.586Z,67.28
2024-01-24T02:52:54.519Z,64.28
2024-01-24T02:55:21.532Z,65.20
2024-01-24T02:57:48.851Z,62.33
2024-01-24T03:00:17.356Z,71.60
2024-01-24T03:02:44.338Z,64.57
2024-01-24T03:05:11.332Z,69.65
2024-01-24T03:07:38.579Z,64.05
2024-01-24T03:10:06.582Z,65.28
2024-01-24T03:12:34.294Z,68.15
2024-01-24T03:15:01.482Z,67.93
2024-01-24T03:17:28.505Z,65.18
2024-01-24T03:19:56.335Z,72.63
2024-01-24T03:22:26.526Z,68.07
2024-01-24T03:27:21.143Z,65.95
2024-01-24T03:29:48.200Z,68.50
2024-01-24T03:32:15.108Z,69.15
2024-01-24T03:34:42.210Z,65.07
2024-01-24T03:37:09.138Z,69.78
2024-01-24T03:39:37.517Z,66.18
2024-01-24T03:42:05.218Z,67.05
2024-01-24T03:44:32.331Z,64.72
2024-01-24T03:46:59.254Z,65.03
2024-01-24T03:49:26.435Z,57.60
2024-01-24T03:51:54.609Z,61.67
2024-01-24T03:54:22.003Z,60.85
2024-01-24T03:56:49.260Z,69.80
2024-01-24T03:59:16.569Z,67.18
2024-01-24T04:01:43.880Z,75.45
2024-01-24T04:04:10.952Z,69.63
2024-01-24T04:06:38.207Z,71.75
2024-01-24T04:09:05.487Z,69.10
2024-01-24T04:11:32.389Z,69.82
2024-01-24T04:13:59.467Z,65.30
2024-01-24T04:16:26.322Z,67.38
2024-01-24T04:18:55.067Z,64.95
2024-01-24T04:21:22.112Z,68.28
2024-01-24T04:23:49.060Z,65.55
2024-01-24T04:26:16.084Z,58.90
2024-01-24T04:28:43.113Z,61.92
2024-01-24T04:31:10.192Z,67.47
2024-01-24T04:33:37.435Z,60.63
2024-01-24T04:36:04.881Z,61.85
2024-01-24T04:38:31.776Z,62.15
2024-01-24T04:40:58.644Z,61.83
2024-01-24T04:43:25.693Z,62.20
2024-01-24T04:45:52.736Z,59.00
2024-01-24T04:48:19.851Z,64.28
2024-01-24T04:50:47.310Z,57.55
2024-01-24T04:53:14.374Z,58.33
2024-01-24T04:55:41.266Z,59.60
2024-01-24T04:58:08.433Z,57.50
2024-01-24T05:00:36.447Z,55.25
2024-01-24T05:03:03.685Z,60.67
2024-01-24T05:05:30.657Z,55.65
2024-01-24T05:07:57.719Z,60.42
2024-01-24T05:10:25.010Z,58.75
2024-01-24T05:12:52.258Z,60.92
2024-01-24T05:15:20.520Z,85.22
2024-01-24T05:17:47.779Z,65.03
2024-01-24T05:20:14.812Z,64.43
2024-01-24T05:22:42.037Z,68.80
2024-01-24T05:25:09.295Z,61.28
2024-01-24T05:27:36.380Z,59.70
2024-01-24T05:30:15.684Z,59.72
2024-01-24T05:32:47.720Z,58.40
2024-01-24T05:35:15.348Z,56.65
2024-01-24T05:37:42.341Z,61.83
2024-01-24T05:40:09.900Z,70.18
2024-01-24T05:42:36.956Z,67.20
2024-01-24T05:45:03.989Z,64.93
2024-01-24T05:47:31.025Z,65.32
2024-01-24T05:49:59.885Z,63.88
2024-01-24T05:52:27.140Z,64.07
2024-01-24T05:54:55.357Z,63.75
2024-01-24T05:57:23.451Z,58.85
2024-01-24T05:59:50.645Z,60.17
2024-01-24T06:02:17.824Z,69.32
2024-01-24T06:04:44.852Z,67.05
2024-01-24T06:07:15.331Z,64.32
2024-01-24T06:09:42.416Z,64.80
2024-01-24T06:12:09.699Z,62.90
2024-01-24T06:14:36.805Z,72.47
2024-01-24T06:17:04.443Z,69.00
2024-01-24T06:19:31.480Z,70.25
2024-01-24T06:21:58.450Z,64.55
2024-01-24T06:24:25.588Z,69.68
2024-01-24T06:26:52.500Z,74.47
2024-01-24T06:30:14.703Z,80.45
2024-01-24T06:32:08.173Z,63.22
2024-01-24T06:34:35.253Z,72.95
2024-01-24T06:37:02.289Z,71.80
2024-01-24T06:39:29.275Z,76.47
2024-01-24T06:41:57.682Z,70.53
2024-01-24T06:44:24.948Z,64.13
2024-01-24T06:46:52.000Z,66.13
2024-01-24T06:49:19.011Z,63.28
2024-01-24T06:51:47.198Z,62.90
2024-01-24T06:54:14.625Z,61.50
2024-01-24T06:56:41.719Z,68.15
2024-01-24T06:59:08.686Z,73.10
2024-01-24T07:01:35.848Z,76.93
2024-01-24T07:04:02.990Z,85.13
2024-01-24T07:06:30.113Z,88.57
2024-01-24T07:08:58.320Z,92.85
2024-01-24T07:11:25.675Z,88.97
2024-01-24T07:13:52.596Z,92.43
2024-01-24T07:16:21.080Z,92.85
2024-01-24T07:18:59.859Z,99.78
2024-01-24T07:21:31.637Z,113.55
2024-01-24T07:23:58.602Z,113.25
2024-01-24T07:26:25.625Z,118.70
2024-01-24T07:28:52.806Z,121.22
2024-01-24T07:31:19.772Z,123.03
2024-01-24T07:33:47.118Z,121.20
2024-01-24T07:36:14.130Z,126.55
2024-01-24T07:38:41.189Z,130.93
2024-01-24T07:41:09.066Z,133.88
2024-01-24T07:43:36.173Z,139.70
2024-01-24T07:46:03.452Z,136.95
2024-01-24T07:48:34.248Z,138.02
2024-01-24T07:51:01.563Z,140.27
2024-01-24T07:53:28.864Z,120.30
2024-01-24T07:56:03.515Z,129.40
2024-01-24T07:58:41.239Z,133.88
2024-01-24T08:01:11.185Z,129.10
2024-01-24T08:03:39.377Z,129.23
2024-01-24T08:06:06.773Z,131.63
2024-01-24T08:08:34.117Z,130.30
2024-01-24T08:11:02.029Z,129.73
2024-01-24T08:13:32.050Z,121.93
2024-01-24T08:15:59.290Z,106.13
2024-01-24T08:18:27.282Z,114.72
2024-01-24T08:20:56.827Z,121.13
2024-01-24T08:23:31.693Z,132.38
2024-01-24T08:26:05.524Z,119.07
2024-01-24T08:28:32.961Z,121.43
2024-01-24T08:31:00.096Z,120.05
2024-01-24T08:33:27.430Z,126.25
2024-01-24T08:35:54.530Z,107.85
2024-01-24T08:38:21.464Z,82.28
2024-01-24T08:40:48.581Z,91.72
2024-01-24T08:43:15.826Z,93.40
2024-01-24T08:45:51.319Z,87.38
2024-01-24T08:48:23.509Z,93.20
2024-01-24T08:50:50.679Z,89.55
2024-01-24T08:53:18.309Z,92.90
2024-01-24T08:55:45.665Z,81.38
2024-01-24T08:58:13.132Z,90.55
2024-01-24T09:00:41.077Z,88.20
2024-01-24T09:03:10.697Z,82.63
2024-01-24T09:05:43.212Z,81.68
2024-01-24T09:08:10.952Z,88.00
2024-01-24T09:10:38.240Z,68.85
2024-01-24T09:13:05.715Z,71.45
2024-01-24T09:15:33.418Z,72.13
2024-01-24T09:18:05.424Z,77.10
2024-01-24T09:20:32.601Z,70.85
2024-01-24T09:22:59.971Z,78.43
2024-01-24T09:25:30.510Z,73.72
2024-01-24T09:30:50.114Z,66.80
2024-01-24T09:36:01.498Z,59.78
2024-01-24T09:38:29.316Z,61.25
2024-01-24T09:41:00.171Z,64.00
2024-01-24T09:43:30.928Z,56.88
2024-01-24T09:45:59.020Z,60.97
2024-01-24T09:48:26.374Z,61.03
2024-01-24T09:50:54.373Z,56.47
2024-01-24T09:53:25.293Z,54.47
2024-01-24T09:55:54.984Z,52.25
2024-01-24T09:58:22.228Z,50.72
2024-01-24T10:00:52.967Z,50.95
2024-01-24T10:03:20.251Z,46.17
2024-01-24T10:05:50.678Z,48.97
2024-01-24T10:08:20.019Z,54.50
2024-01-24T10:10:47.376Z,51.70
2024-01-24T10:13:14.420Z,54.35
2024-01-24T10:15:41.652Z,55.75
2024-01-24T10:18:12.435Z,53.70
2024-01-24T10:20:42.599Z,43.55
2024-01-24T10:23:13.027Z,41.15
2024-01-24T10:25:43.263Z,44.35
2024-01-24T10:28:15.113Z,37.70
2024-01-24T10:30:42.832Z,38.97
2024-01-24T10:33:21.542Z,39.28
2024-01-24T10:35:55.195Z,39.67
2024-01-24T10:38:25.560Z,41.83
2024-01-24T10:43:24.548Z,48.13
2024-01-24T10:45:53.277Z,47.88
2024-01-24T10:48:21.461Z,50.75
2024-01-24T10:50:49.398Z,50.15
2024-01-24T10:53:20.184Z,54.60
2024-01-24T10:55:51.260Z,46.25
2024-01-24T10:58:19.737Z,45.92
2024-01-24T11:00:46.903Z,37.75
2024-01-24T11:03:14.441Z,43.10
2024-01-24T11:05:48.653Z,43.88
2024-01-24T11:08:35.934Z,42.05
2024-01-24T11:11:14.423Z,39.90
2024-01-24T11:13:44.190Z,43.58
2024-01-24T11:16:38.705Z,35.88
2024-01-24T11:19:24.099Z,38.80
2024-01-24T11:21:58.378Z,36.67
2024-01-24T11:24:47.785Z,41.05
2024-01-24T11:27:35.883Z,35.78
2024-01-24T11:30:13.147Z,37.50
2024-01-24T11:32:46.906Z,34.58
2024-01-24T11:35:42.088Z,30.67
2024-01-24T11:38:25.850Z,24.35
2024-01-24T11:40:58.407Z,28.40
2024-01-24T11:43:32.692Z,26.52
2024-01-24T11:46:07.516Z,23.75
2024-01-24T11:48:37.820Z,29.40
2024-01-24T11:53:43.290Z,33.05
2024-01-24T11:56:16.480Z,31.90
2024-01-24T11:58:43.754Z,26.67
2024-01-24T12:01:14.793Z,31.90
2024-01-24T12:03:49.651Z,31.17
2024-01-24T12:06:18.721Z,28.75
2024-01-24T12:08:49.967Z,27.83
2024-01-24T12:11:18.684Z,29.92
2024-01-24T12:13:46.477Z,30.30
2024-01-24T12:16:24.565Z,32.22
2024-01-24T12:18:52.051Z,36.83
2024-01-24T12:21:20.079Z,31.02
2024-01-24T12:23:49.353Z,26.27
2024-01-24T12:26:17.362Z,27.73
2024-01-24T12:28:46.453Z,29.23
2024-01-24T12:31:14.269Z,28.65
2024-01-24T12:33:41.810Z,22.70
2024-01-24T12:36:12.058Z,22.08
2024-01-24T12:41:06.497Z,24.65
2024-01-24T12:43:33.683Z,25.40
2024-01-24T12:46:09.155Z,20.88
2024-01-24T12:48:38.739Z,24.02
2024-01-24T12:51:07.420Z,22.90
2024-01-24T12:53:35.099Z,26.48
2024-01-24T12:56:02.674Z,27.75
2024-01-24T12:58:29.843Z,26.83
2024-01-24T13:00:57.152Z,32.00
2024-01-24T13:03:24.623Z,30.15
2024-01-24T13:05:54.002Z,38.43
2024-01-24T13:08:22.183Z,27.77
2024-01-24T13:10:50.146Z,41.97
2024-01-24T13:13:17.908Z,31.05
2024-01-24T13:15:45.602Z,24.63
2024-01-24T13:18:12.840Z,26.42
2024-01-24T13:20:41.525Z,27.50
2024-01-24T13:23:08.529Z,29.80
2024-01-24T13:25:35.850Z,29.25
2024-01-24T13:28:04.230Z,32.70
2024-01-24T13:30:32.783Z,32.38
2024-01-24T13:33:00.096Z,34.58
2024-01-24T13:35:27.225Z,32.53
2024-01-24T13:37:54.312Z,28.73
2024-01-24T13:40:21.343Z,28.35
2024-01-24T13:42:48.828Z,31.23
2024-01-24T13:45:16.169Z,31.40
2024-01-24T13:47:43.288Z,30.30
2024-01-24T13:50:11.481Z,29.42
2024-01-24T13:52:40.353Z,26.83
2024-01-24T13:55:09.920Z,26.73
2024-01-24T13:57:39.743Z,27.73
2024-01-24T14:00:13.090Z,26.98
2024-01-24T14:05:11.162Z,25.92
2024-01-24T14:07:40.413Z,26.77
2024-01-24T14:10:08.419Z,25.92
2024-01-24T14:12:35.803Z,23.55
2024-01-24T14:15:15.300Z,22.02
2024-01-24T14:17:50.832Z,26.95
2024-01-24T14:20:19.124Z,25.30
2024-01-24T14:22:46.184Z,24.83
2024-01-24T14:25:13.518Z,22.23
2024-01-24T14:27:42.240Z,23.92
2024-01-24T14:30:09.406Z,25.75
2024-01-24T14:32:39.917Z,26.38
2024-01-24T14:35:08.448Z,26.58
2024-01-24T14:37:36.216Z,26.40
2024-01-24T14:40:03.991Z,27.05
2024-01-24T14:42:31.277Z,26.75
2024-01-24T14:45:00.485Z,27.77
2024-01-24T14:47:28.028Z,33.50
2024-01-24T14:49:55.391Z,31.35
2024-01-24T14:52:22.401Z,32.58
2024-01-24T14:54:49.529Z,35.80
2024-01-24T14:57:16.907Z,33.67
2024-01-24T14:59:44.139Z,33.40
2024-01-24T15:02:11.014Z,32.97
2024-01-24T15:04:42.240Z,33.90
2024-01-24T15:07:09.341Z,29.33
2024-01-24T15:09:37.082Z,29.05
2024-01-24T15:12:05.775Z,41.05
2024-01-24T15:14:32.925Z,35.78
2024-01-24T15:17:00.275Z,28.27
2024-01-24T15:19:27.347Z,23.52
2024-01-24T15:21:55.422Z,28.95
2024-01-24T15:24:23.394Z,18.35
2024-01-24T15:26:50.859Z,21.05
2024-01-24T15:29:17.871Z,16.65
2024-01-24T15:31:44.873Z,18.25
2024-01-24T15:34:14.792Z,17.13
2024-01-24T15:36:43.051Z,18.92
2024-01-24T15:39:13.478Z,15.77
2024-01-24T15:44:09.877Z,15.55
2024-01-24T15:46:37.280Z,13.50
2024-01-24T15:49:04.697Z,14.73
2024-01-24T15:51:32.070Z,13.40
2024-01-24T15:53:59.173Z,13.60
2024-01-24T15:56:26.256Z,13.60
2024-01-24T15:58:53.409Z,14.82
2024-01-24T16:01:20.969Z,13.50
2024-01-24T16:03:48.126Z,10.60
2024-01-24T16:06:15.320Z,19.40
2024-01-24T16:08:42.293Z,12.18
2024-01-24T16:11:09.330Z,16.60
2024-01-24T16:13:36.264Z,14.40
2024-01-24T16:16:03.947Z,14.40
2024-01-24T16:18:31.049Z,16.05
2024-01-24T16:20:58.084Z,13.70
2024-01-24T16:23:25.094Z,14.82
2024-01-24T16:25:52.320Z,13.38
2024-01-24T16:28:19.366Z,14.45
2024-01-24T16:30:46.766Z,15.93
2024-01-24T16:33:15.084Z,14.10
2024-01-24T16:35:42.175Z,16.63
2024-01-24T16:38:09.723Z,13.05
2024-01-24T16:40:36.804Z,13.85
2024-01-24T16:43:05.270Z,13.57
2024-01-24T16:45:32.346Z,15.07
2024-01-24T16:47:59.397Z,15.32
2024-01-24T16:50:26.394Z,15.90
2024-01-24T16:52:53.484Z,15.07
2024-01-24T16:55:20.651Z,12.73
2024-01-24T16:57:47.773Z,12.57
2024-01-24T17:00:15.201Z,16.20
2024-01-24T17:02:46.750Z,13.52
2024-01-24T17:05:19.312Z,13.27
2024-01-24T17:07:46.410Z,13.98
2024-01-24T17:10:15.782Z,15.98
2024-01-24T17:12:42.990Z,16.53
2024-01-24T17:15:14.549Z,18.80
2024-01-24T17:17:42.156Z,13.27
2024-01-24T17:20:09.628Z,12.65
2024-01-24T17:22:36.966Z,14.32
2024-01-24T17:25:04.529Z,12.70
2024-01-24T17:27:32.771Z,13.02
2024-01-24T17:29:59.726Z,14.40
2024-01-24T17:32:26.813Z,14.60
2024-01-24T17:34:54.397Z,18.48
2024-01-24T17:37:21.957Z,12.32
2024-01-24T17:39:50.124Z,13.43
2024-01-24T17:42:18.524Z,15.30
2024-01-24T17:44:45.668Z,15.15
2024-01-24T17:47:13.148Z,16.95
2024-01-24T17:49:40.344Z,14.90
2024-01-24T17:52:08.073Z,14.18
2024-01-24T17:54:35.268Z,16.45
2024-01-24T17:57:03.190Z,15.60
2024-01-24T17:59:30.228Z,14.68
2024-01-24T18:01:57.812Z,15.68
2024-01-24T18:04:25.794Z,19.08
2024-01-24T18:06:53.340Z,16.55
2024-01-24T18:09:21.829Z,17.75
2024-01-24T18:11:49.100Z,14.48
2024-01-24T18:14:16.115Z,14.32
2024-01-24T18:16:43.278Z,14.63
2024-01-24T18:19:10.677Z,15.38
2024-01-24T18:21:37.675Z,18.58
2024-01-24T18:24:06.223Z,18.10
2024-01-24T18:26:33.403Z,15.48
2024-01-24T18:29:02.335Z,15.00
2024-01-24T18:31:29.350Z,11.93
2024-01-24T18:33:56.664Z,14.18
2024-01-24T18:36:24.162Z,13.65
2024-01-24T18:38:51.220Z,14.57
2024-01-24T18:41:19.160Z,13.43
2024-01-24T18:43:48.697Z,12.80
2024-01-24T18:46:20.375Z,14.20
2024-01-24T18:48:48.090Z,13.82
2024-01-24T18:51:17.784Z,16.80
2024-01-24T18:53:48.182Z,14.60
2024-01-24T18:56:16.710Z,17.50
2024-01-24T18:58:43.846Z,18.00
2024-01-24T19:01:11.534Z,15.82
2024-01-24T19:03:39.084Z,13.98
2024-01-24T19:06:06.804Z,15.25
2024-01-24T19:08:37.202Z,18.05
2024-01-24T19:11:05.290Z,13.18
2024-01-24T19:13:32.766Z,17.55
2024-01-24T19:16:00.313Z,17.50
2024-01-24T19:18:30.563Z,15.32
2024-01-24T19:20:58.036Z,15.40
2024-01-24T19:23:25.139Z,15.63
2024-01-24T19:25:52.634Z,17.45
2024-01-24T19:28:20.699Z,15.18
2024-01-24T19:30:50.043Z,20.63
2024-01-24T19:33:17.888Z,19.30
2024-01-24T19:35:45.045Z,12.75
2024-01-24T19:38:13.096Z,14.00
2024-01-24T19:40:40.200Z,12.43
2024-01-24T19:43:07.461Z,16.00
2024-01-24T19:45:34.656Z,12.95
2024-01-24T19:48:01.924Z,12.23
2024-01-24T19:50:29.448Z,12.07
2024-01-24T19:52:56.962Z,14.00
2024-01-24T19:55:25.193Z,15.82
2024-01-24T19:57:52.366Z,13.77
2024-01-24T20:00:22.829Z,12.32
2024-01-24T20:02:49.985Z,13.70
2024-01-24T20:05:17.927Z,14.38
2024-01-24T20:07:45.875Z,13.82
2024-01-24T20:10:13.359Z,13.88
2024-01-24T20:12:40.464Z,15.68
2024-01-24T20:15:10.391Z,17.95
2024-01-24T20:17:46.556Z,15.85
2024-01-24T20:20:15.808Z,15.35
2024-01-24T20:22:46.881Z,17.05
2024-01-24T20:25:14.264Z,17.80
2024-01-24T20:27:43.907Z,13.95
2024-01-24T20:30:11.857Z,13.57
2024-01-24T20:32:45.396Z,18.65
2024-01-24T20:35:20.708Z,17.55
2024-01-24T20:37:47.991Z,15.75
2024-01-24T20:40:15.117Z,18.52
2024-01-24T20:42:42.400Z,14.73
2024-01-24T20:45:09.879Z,14.07
2024-01-24T20:47:37.432Z,14.32
2024-01-24T20:50:05.556Z,13.52
2024-01-24T20:52:32.915Z,15.40
2024-01-24T20:55:00.584Z,17.45
2024-01-24T20:57:28.880Z,13.73
2024-01-24T20:59:57.555Z,12.82
2024-01-24T21:02:24.954Z,18.88
2024-01-24T21:04:53.121Z,18.52
2024-01-24T21:07:21.014Z,16.17
2024-01-24T21:09:48.191Z,17.90
2024-01-24T21:12:15.280Z,16.95
2024-01-24T21:14:42.711Z,16.63
2024-01-24T21:17:09.843Z,14.65
2024-01-24T21:19:38.251Z,14.90
2024-01-24T21:22:05.728Z,17.25
2024-01-24T21:24:32.947Z,17.70
2024-01-24T21:27:00.410Z,16.17
2024-01-24T21:29:29.989Z,16.45
2024-01-24T21:31:57.128Z,17.77
2024-01-24T21:34:24.423Z,17.92
2024-01-24T21:36:51.658Z,18.00
2024-01-24T21:39:18.825Z,16.63
2024-01-24T21:41:45.887Z,18.30
2024-01-24T21:44:12.842Z,16.90
2024-01-24T21:46:39.772Z,15.93
2024-01-24T21:49:07.111Z,16.17
2024-01-24T21:51:34.200Z,15.05
2024-01-24T21:54:02.363Z,16.08
2024-01-24T21:56:29.473Z,18.85
2024-01-24T21:58:56.778Z,19.65
2024-01-24T22:01:24.732Z,18.38
2024-01-24T22:03:52.476Z,19.30
2024-01-24T22:06:19.767Z,18.85
2024-01-24T22:08:47.059Z,15.90
2024-01-24T22:11:15.704Z,15.02
2024-01-24T22:13:43.096Z,20.42
2024-01-24T22:16:13.349Z,18.85
2024-01-24T22:18:44.794Z,15.25
2024-01-24T22:21:18.961Z,13.23
2024-01-24T22:23:46.349Z,16.52
2024-01-24T22:26:13.632Z,17.33
2024-01-24T22:28:41.117Z,18.40
2024-01-24T22:31:08.349Z,22.05
2024-01-24T22:33:36.464Z,16.77
2024-01-24T22:36:04.064Z,17.65
2024-01-24T22:38:31.604Z,16.83
2024-01-24T22:43:32.366Z,18.15
2024-01-24T22:45:59.444Z,23.83
2024-01-24T22:48:27.388Z,17.67
2024-01-24T22:50:54.494Z,20.23
2024-01-24T22:53:23.829Z,16.35
2024-01-24T22:55:51.330Z,17.92
2024-01-24T22:58:21.679Z,13.85
2024-01-24T23:00:49.698Z,15.32
2024-01-24T23:03:16.755Z,18.60
2024-01-24T23:05:43.782Z,15.60
2024-01-24T23:08:13.939Z,14.65
2024-01-24T23:10:44.391Z,16.25
2024-01-24T23:13:11.513Z,15.20
2024-01-24T23:15:38.564Z,19.33
2024-01-24T23:18:05.850Z,16.45
2024-01-24T23:20:32.856Z,17.45
2024-01-24T23:22:59.838Z,16.55
2024-01-24T23:25:27.115Z,15.93
2024-01-24T23:27:54.332Z,17.85
2024-01-24T23:30:21.331Z,17.95
2024-01-24T23:32:48.544Z,22.92
2024-01-24T23:35:15.820Z,14.63
2024-01-24T23:37:43.108Z,20.13
2024-01-24T23:40:10.790Z,20.85
2024-01-24T23:42:39.527Z,25.05
2024-01-24T23:45:07.163Z,25.35
2024-01-24T23:47:34.321Z,22.05
2024-01-24T23:50:01.645Z,23.70
2024-01-24T23:52:29.044Z,22.08
2024-01-24T23:54:56.195Z,24.10
2024-01-24T23:57:24.472Z,24.10
2024-01-24T23:59:51.841Z,24.63
